sensor_id;sensor_type;location;lat;lon;timestamp;temperature;humidity
14585;DHT22;7379;51.506;11.876;2023-05-10T00:00:12;16.10;50.10
14585;DHT22;7379;51.506;11.876;2023-05-10T00:02:39;16.10;50.30
14585;DHT22;7379;51.506;11.876;2023-05-10T00:05:07;16.10;50.30
14585;DHT22;7379;51.506;11.876;2023-05-10T00:07:33;16.10;50.30
14585;DHT22;7379;51.506;11.876;2023-05-10T00:10:00;16.10;50.40
14585;DHT22;7379;51.506;11.876;2023-05-10T00:12:27;16.00;50.40
14585;DHT22;7379;51.506;11.876;2023-05-10T00:14:54;16.00;50.50
14585;DHT22;7379;51.506;11.876;2023-05-10T00:17:22;16.00;50.60
14585;DHT22;7379;51.506;11.876;2023-05-10T00:19:49;16.00;50.50
14585;DHT22;7379;51.506;11.876;2023-05-10T00:22:16;16.00;50.60
14585;DHT22;7379;51.506;11.876;2023-05-10T00:24:43;16.00;50.60
14585;DHT22;7379;51.506;11.876;2023-05-10T00:27:09;16.00;50.70
14585;DHT22;7379;51.506;11.876;2023-05-10T00:29:36;15.90;50.60
14585;DHT22;7379;51.506;11.876;2023-05-10T00:32:03;15.90;50.80
14585;DHT22;7379;51.506;11.876;2023-05-10T00:34:32;15.90;50.70
14585;DHT22;7379;51.506;11.876;2023-05-10T00:36:59;15.90;51.40
14585;DHT22;7379;51.506;11.876;2023-05-10T00:39:26;15.90;50.90
14585;DHT22;7379;51.506;11.876;2023-05-10T00:41:54;15.90;50.90
14585;DHT22;7379;51.506;11.876;2023-05-10T00:44:20;15.90;51.00
14585;DHT22;7379;51.506;11.876;2023-05-10T00:46:47;15.80;50.90
14585;DHT22;7379;51.506;11.876;2023-05-10T00:49:15;15.80;51.00
14585;DHT22;7379;51.506;11.876;2023-05-10T00:51:43;15.80;51.00
14585;DHT22;7379;51.506;11.876;2023-05-10T00:54:11;15.80;51.10
14585;DHT22;7379;51.506;11.876;2023-05-10T00:56:38;15.80;51.10
14585;DHT22;7379;51.506;11.876;2023-05-10T00:59:05;15.80;51.20
14585;DHT22;7379;51.506;11.876;2023-05-10T01:01:32;15.70;51.10
14585;DHT22;7379;51.506;11.876;2023-05-10T01:03:59;15.70;51.10
14585;DHT22;7379;51.506;11.876;2023-05-10T01:06:27;15.70;51.80
14585;DHT22;7379;51.506;11.876;2023-05-10T01:08:55;15.70;51.20
14585;DHT22;7379;51.506;11.876;2023-05-10T01:11:22;15.70;51.30
14585;DHT22;7379;51.506;11.876;2023-05-10T01:13:56;15.70;51.20
14585;DHT22;7379;51.506;11.876;2023-05-10T01:16:24;15.70;51.40
14585;DHT22;7379;51.506;11.876;2023-05-10T01:18:53;15.60;51.30
14585;DHT22;7379;51.506;11.876;2023-05-10T01:21:27;15.70;51.50
14585;DHT22;7379;51.506;11.876;2023-05-10T01:24:17;15.70;51.50
14585;DHT22;7379;51.506;11.876;2023-05-10T01:27:07;15.60;51.50
14585;DHT22;7379;51.506;11.876;2023-05-10T01:32:38;15.60;51.60
14585;DHT22;7379;51.506;11.876;2023-05-10T01:35:10;15.50;51.60
14585;DHT22;7379;51.506;11.876;2023-05-10T01:37:44;15.50;51.60
14585;DHT22;7379;51.506;11.876;2023-05-10T01:40:18;15.50;51.60
14585;DHT22;7379;51.506;11.876;2023-05-10T01:42:49;15.50;51.70
14585;DHT22;7379;51.506;11.876;2023-05-10T01:45:22;15.50;51.80
14585;DHT22;7379;51.506;11.876;2023-05-10T01:47:58;15.50;51.80
14585;DHT22;7379;51.506;11.876;2023-05-10T01:50:29;15.50;51.80
14585;DHT22;7379;51.506;11.876;2023-05-10T01:52:58;15.50;51.80
14585;DHT22;7379;51.506;11.876;2023-05-10T01:55:29;15.40;51.80
14585;DHT22;7379;51.506;11.876;2023-05-10T01:58:02;15.50;51.90
14585;DHT22;7379;51.506;11.876;2023-05-10T02:00:29;15.40;51.90
14585;DHT22;7379;51.506;11.876;2023-05-10T02:03:00;15.40;52.00
14585;DHT22;7379;51.506;11.876;2023-05-10T02:05:29;15.40;52.00
14585;DHT22;7379;51.506;11.876;2023-05-10T02:07:58;15.40;52.10
14585;DHT22;7379;51.506;11.876;2023-05-10T02:10:26;15.40;52.20
14585;DHT22;7379;51.506;11.876;2023-05-10T02:12:54;15.30;52.10
14585;DHT22;7379;51.506;11.876;2023-05-10T02:15:23;15.30;52.10
14585;DHT22;7379;51.506;11.876;2023-05-10T02:17:52;15.30;52.20
14585;DHT22;7379;51.506;11.876;2023-05-10T02:20:23;15.30;52.30
14585;DHT22;7379;51.506;11.876;2023-05-10T02:22:53;15.30;52.30
14585;DHT22;7379;51.506;11.876;2023-05-10T02:25:23;15.30;52.40
14585;DHT22;7379;51.506;11.876;2023-05-10T02:27:51;15.20;52.30
14585;DHT22;7379;51.506;11.876;2023-05-10T02:30:20;15.20;52.40
14585;DHT22;7379;51.506;11.876;2023-05-10T02:32:49;15.20;52.40
14585;DHT22;7379;51.506;11.876;2023-05-10T02:35:17;15.20;52.40
14585;DHT22;7379;51.506;11.876;2023-05-10T02:37:46;15.20;52.50
14585;DHT22;7379;51.506;11.876;2023-05-10T02:40:14;15.20;52.50
14585;DHT22;7379;51.506;11.876;2023-05-10T02:42:43;15.20;52.60
14585;DHT22;7379;51.506;11.876;2023-05-10T02:45:12;15.20;52.60
14585;DHT22;7379;51.506;11.876;2023-05-10T02:47:39;15.10;52.60
14585;DHT22;7379;51.506;11.876;2023-05-10T02:50:07;15.10;52.60
14585;DHT22;7379;51.506;11.876;2023-05-10T02:52:40;15.10;52.70
14585;DHT22;7379;51.506;11.876;2023-05-10T02:55:14;15.10;52.70
14585;DHT22;7379;51.506;11.876;2023-05-10T02:57:45;15.10;52.80
14585;DHT22;7379;51.506;11.876;2023-05-10T03:00:13;15.10;53.40
14585;DHT22;7379;51.506;11.876;2023-05-10T03:02:40;15.00;52.80
14585;DHT22;7379;51.506;11.876;2023-05-10T03:05:08;15.00;52.80
14585;DHT22;7379;51.506;11.876;2023-05-10T03:07:35;15.00;52.90
14585;DHT22;7379;51.506;11.876;2023-05-10T03:10:02;15.00;53.50
14585;DHT22;7379;51.506;11.876;2023-05-10T03:12:41;15.00;53.00
14585;DHT22;7379;51.506;11.876;2023-05-10T03:15:16;15.00;53.00
14585;DHT22;7379;51.506;11.876;2023-05-10T03:17:48;15.00;53.10
14585;DHT22;7379;51.506;11.876;2023-05-10T03:20:24;14.90;53.00
14585;DHT22;7379;51.506;11.876;2023-05-10T03:22:53;14.90;53.10
14585;DHT22;7379;51.506;11.876;2023-05-10T03:25:21;14.90;53.10
14585;DHT22;7379;51.506;11.876;2023-05-10T03:27:52;14.90;53.10
14585;DHT22;7379;51.506;11.876;2023-05-10T03:30:19;14.90;53.20
14585;DHT22;7379;51.506;11.876;2023-05-10T03:32:46;14.90;53.20
14585;DHT22;7379;51.506;11.876;2023-05-10T03:35:13;14.90;53.20
14585;DHT22;7379;51.506;11.876;2023-05-10T03:37:40;14.90;53.30
14585;DHT22;7379;51.506;11.876;2023-05-10T03:40:08;14.90;53.30
14585;DHT22;7379;51.506;11.876;2023-05-10T03:42:35;14.80;53.30
14585;DHT22;7379;51.506;11.876;2023-05-10T03:45:03;14.80;53.30
14585;DHT22;7379;51.506;11.876;2023-05-10T03:47:30;14.80;53.40
14585;DHT22;7379;51.506;11.876;2023-05-10T03:49:57;14.80;53.40
14585;DHT22;7379;51.506;11.876;2023-05-10T03:52:23;14.80;54.10
14585;DHT22;7379;51.506;11.876;2023-05-10T03:54:50;14.80;53.50
14585;DHT22;7379;51.506;11.876;2023-05-10T03:57:17;14.80;53.60
14585;DHT22;7379;51.506;11.876;2023-05-10T03:59:44;14.70;53.50
14585;DHT22;7379;51.506;11.876;2023-05-10T04:02:12;14.70;53.60
14585;DHT22;7379;51.506;11.876;2023-05-10T04:04:39;14.70;53.60
14585;DHT22;7379;51.506;11.876;2023-05-10T04:07:06;14.70;53.60
14585;DHT22;7379;51.506;11.876;2023-05-10T04:09:32;14.70;53.60
14585;DHT22;7379;51.506;11.876;2023-05-10T04:11:59;14.70;53.70
14585;DHT22;7379;51.506;11.876;2023-05-10T04:14:27;14.70;53.70
14585;DHT22;7379;51.506;11.876;2023-05-10T04:16:54;14.70;53.80
14585;DHT22;7379;51.506;11.876;2023-05-10T04:19:22;14.70;53.80
14585;DHT22;7379;51.506;11.876;2023-05-10T04:21:49;14.70;53.80
14585;DHT22;7379;51.506;11.876;2023-05-10T04:24:16;14.70;53.90
14585;DHT22;7379;51.506;11.876;2023-05-10T04:26:43;14.70;53.90
14585;DHT22;7379;51.506;11.876;2023-05-10T04:29:10;14.70;54.00
14585;DHT22;7379;51.506;11.876;2023-05-10T04:31:37;14.60;53.90
14585;DHT22;7379;51.506;11.876;2023-05-10T04:34:04;14.60;53.90
14585;DHT22;7379;51.506;11.876;2023-05-10T04:36:32;14.60;54.00
14585;DHT22;7379;51.506;11.876;2023-05-10T04:39:01;14.60;54.00
14585;DHT22;7379;51.506;11.876;2023-05-10T04:41:28;14.60;54.00
14585;DHT22;7379;51.506;11.876;2023-05-10T04:43:55;14.60;54.00
14585;DHT22;7379;51.506;11.876;2023-05-10T04:46:22;14.60;54.10
14585;DHT22;7379;51.506;11.876;2023-05-10T04:48:49;14.60;54.10
14585;DHT22;7379;51.506;11.876;2023-05-10T04:51:16;14.60;54.20
14585;DHT22;7379;51.506;11.876;2023-05-10T04:53:44;14.60;54.20
14585;DHT22;7379;51.506;11.876;2023-05-10T04:56:10;14.60;54.20
14585;DHT22;7379;51.506;11.876;2023-05-10T04:58:37;14.60;54.20
14585;DHT22;7379;51.506;11.876;2023-05-10T05:01:07;14.60;54.20
14585;DHT22;7379;51.506;11.876;2023-05-10T05:03:36;14.70;54.60
14585;DHT22;7379;51.506;11.876;2023-05-10T05:06:03;14.70;54.90
14585;DHT22;7379;51.506;11.876;2023-05-10T05:08:30;14.70;55.10
14585;DHT22;7379;51.506;11.876;2023-05-10T05:10:58;14.80;55.10
14585;DHT22;7379;51.506;11.876;2023-05-10T05:13:25;14.80;55.70
14585;DHT22;7379;51.506;11.876;2023-05-10T05:15:52;14.80;54.90
14585;DHT22;7379;51.506;11.876;2023-05-10T05:18:18;14.80;54.80
14585;DHT22;7379;51.506;11.876;2023-05-10T05:20:45;14.90;54.70
14585;DHT22;7379;51.506;11.876;2023-05-10T05:23:12;14.80;54.70
14585;DHT22;7379;51.506;11.876;2023-05-10T05:25:39;14.80;54.70
14585;DHT22;7379;51.506;11.876;2023-05-10T05:28:07;14.80;54.80
14585;DHT22;7379;51.506;11.876;2023-05-10T05:30:34;14.70;54.60
14585;DHT22;7379;51.506;11.876;2023-05-10T05:33:01;14.70;54.60
14585;DHT22;7379;51.506;11.876;2023-05-10T05:35:27;14.70;54.70
14585;DHT22;7379;51.506;11.876;2023-05-10T05:37:54;14.70;54.80
14585;DHT22;7379;51.506;11.876;2023-05-10T05:40:21;14.70;54.80
14585;DHT22;7379;51.506;11.876;2023-05-10T05:42:48;14.60;54.90
14585;DHT22;7379;51.506;11.876;2023-05-10T05:45:16;14.60;55.00
14585;DHT22;7379;51.506;11.876;2023-05-10T05:47:43;14.60;55.00
14585;DHT22;7379;51.506;11.876;2023-05-10T05:50:10;14.60;55.10
14585;DHT22;7379;51.506;11.876;2023-05-10T05:52:37;14.60;55.10
14585;DHT22;7379;51.506;11.876;2023-05-10T05:55:04;14.60;55.20
14585;DHT22;7379;51.506;11.876;2023-05-10T05:57:31;14.60;55.30
14585;DHT22;7379;51.506;11.876;2023-05-10T05:59:58;14.60;55.30
14585;DHT22;7379;51.506;11.876;2023-05-10T06:02:27;14.60;55.30
14585;DHT22;7379;51.506;11.876;2023-05-10T06:04:53;14.60;56.00
14585;DHT22;7379;51.506;11.876;2023-05-10T06:07:20;14.60;55.20
14585;DHT22;7379;51.506;11.876;2023-05-10T06:09:47;14.60;55.30
14585;DHT22;7379;51.506;11.876;2023-05-10T06:12:14;14.60;55.30
14585;DHT22;7379;51.506;11.876;2023-05-10T06:14:40;14.60;55.40
14585;DHT22;7379;51.506;11.876;2023-05-10T06:17:07;14.60;55.40
14585;DHT22;7379;51.506;11.876;2023-05-10T06:19:36;14.60;55.40
14585;DHT22;7379;51.506;11.876;2023-05-10T06:22:02;14.60;55.50
14585;DHT22;7379;51.506;11.876;2023-05-10T06:24:29;14.60;55.80
14585;DHT22;7379;51.506;11.876;2023-05-10T06:26:56;14.60;55.80
14585;DHT22;7379;51.506;11.876;2023-05-10T06:29:25;14.60;55.60
14585;DHT22;7379;51.506;11.876;2023-05-10T06:31:52;14.60;55.70
14585;DHT22;7379;51.506;11.876;2023-05-10T06:34:19;14.60;55.90
14585;DHT22;7379;51.506;11.876;2023-05-10T06:36:48;14.60;55.90
14585;DHT22;7379;51.506;11.876;2023-05-10T06:39:14;14.70;56.30
14585;DHT22;7379;51.506;11.876;2023-05-10T06:41:41;14.70;56.30
14585;DHT22;7379;51.506;11.876;2023-05-10T06:44:08;14.70;56.10
14585;DHT22;7379;51.506;11.876;2023-05-10T06:46:35;14.70;56.80
14585;DHT22;7379;51.506;11.876;2023-05-10T06:49:02;14.70;56.20
14585;DHT22;7379;51.506;11.876;2023-05-10T06:51:28;14.70;56.10
14585;DHT22;7379;51.506;11.876;2023-05-10T06:53:56;14.70;56.30
14585;DHT22;7379;51.506;11.876;2023-05-10T06:56:23;14.70;56.40
14585;DHT22;7379;51.506;11.876;2023-05-10T06:58:50;14.70;56.60
14585;DHT22;7379;51.506;11.876;2023-05-10T07:01:17;14.70;56.70
14585;DHT22;7379;51.506;11.876;2023-05-10T07:03:44;14.70;56.70
14585;DHT22;7379;51.506;11.876;2023-05-10T07:06:11;14.70;56.60
14585;DHT22;7379;51.506;11.876;2023-05-10T07:08:37;14.70;56.50
14585;DHT22;7379;51.506;11.876;2023-05-10T07:11:06;14.70;56.60
14585;DHT22;7379;51.506;11.876;2023-05-10T07:13:34;14.70;56.80
14585;DHT22;7379;51.506;11.876;2023-05-10T07:16:01;14.70;56.80
14585;DHT22;7379;51.506;11.876;2023-05-10T07:18:28;14.70;56.80
14585;DHT22;7379;51.506;11.876;2023-05-10T07:20:57;14.70;57.30
14585;DHT22;7379;51.506;11.876;2023-05-10T07:23:24;14.70;56.80
14585;DHT22;7379;51.506;11.876;2023-05-10T07:25:51;14.70;56.90
14585;DHT22;7379;51.506;11.876;2023-05-10T07:28:19;14.70;56.80
14585;DHT22;7379;51.506;11.876;2023-05-10T07:30:46;14.70;57.40
14585;DHT22;7379;51.506;11.876;2023-05-10T07:33:14;14.70;56.80
14585;DHT22;7379;51.506;11.876;2023-05-10T07:35:41;14.70;56.90
14585;DHT22;7379;51.506;11.876;2023-05-10T07:38:08;14.70;57.60
14585;DHT22;7379;51.506;11.876;2023-05-10T07:40:36;14.70;58.90
14585;DHT22;7379;51.506;11.876;2023-05-10T07:43:03;14.70;59.60
14585;DHT22;7379;51.506;11.876;2023-05-10T07:45:32;14.70;59.30
14585;DHT22;7379;51.506;11.876;2023-05-10T07:47:59;14.70;59.40
14585;DHT22;7379;51.506;11.876;2023-05-10T07:50:26;14.70;59.70
14585;DHT22;7379;51.506;11.876;2023-05-10T07:52:53;14.70;60.20
14585;DHT22;7379;51.506;11.876;2023-05-10T07:55:20;14.80;60.20
14585;DHT22;7379;51.506;11.876;2023-05-10T07:57:47;14.70;59.80
14585;DHT22;7379;51.506;11.876;2023-05-10T08:00:17;14.70;59.80
14585;DHT22;7379;51.506;11.876;2023-05-10T08:02:46;14.80;60.80
14585;DHT22;7379;51.506;11.876;2023-05-10T08:05:13;14.80;60.00
14585;DHT22;7379;51.506;11.876;2023-05-10T08:07:40;14.80;61.20
14585;DHT22;7379;51.506;11.876;2023-05-10T08:10:09;14.80;61.40
14585;DHT22;7379;51.506;11.876;2023-05-10T08:12:37;14.80;61.40
14585;DHT22;7379;51.506;11.876;2023-05-10T08:15:05;14.80;61.70
14585;DHT22;7379;51.506;11.876;2023-05-10T08:17:33;14.80;62.30
14585;DHT22;7379;51.506;11.876;2023-05-10T08:20:01;14.80;62.10
14585;DHT22;7379;51.506;11.876;2023-05-10T08:22:28;14.80;62.30
14585;DHT22;7379;51.506;11.876;2023-05-10T08:24:55;14.80;61.80
14585;DHT22;7379;51.506;11.876;2023-05-10T08:27:21;14.80;62.00
14585;DHT22;7379;51.506;11.876;2023-05-10T08:29:48;14.80;62.20
14585;DHT22;7379;51.506;11.876;2023-05-10T08:32:15;14.80;62.40
14585;DHT22;7379;51.506;11.876;2023-05-10T08:34:42;14.80;62.40
14585;DHT22;7379;51.506;11.876;2023-05-10T08:37:10;14.90;62.90
14585;DHT22;7379;51.506;11.876;2023-05-10T08:39:38;14.90;62.30
14585;DHT22;7379;51.506;11.876;2023-05-10T08:42:05;14.80;62.20
14585;DHT22;7379;51.506;11.876;2023-05-10T08:44:35;14.90;62.30
14585;DHT22;7379;51.506;11.876;2023-05-10T08:47:05;14.80;62.50
14585;DHT22;7379;51.506;11.876;2023-05-10T08:49:33;14.90;62.80
14585;DHT22;7379;51.506;11.876;2023-05-10T08:52:02;14.90;63.70
14585;DHT22;7379;51.506;11.876;2023-05-10T08:54:33;14.90;64.20
14585;DHT22;7379;51.506;11.876;2023-05-10T08:57:00;14.90;64.60
14585;DHT22;7379;51.506;11.876;2023-05-10T08:59:27;14.90;65.50
14585;DHT22;7379;51.506;11.876;2023-05-10T09:01:57;15.00;64.30
14585;DHT22;7379;51.506;11.876;2023-05-10T09:04:24;15.00;64.60
14585;DHT22;7379;51.506;11.876;2023-05-10T09:06:51;15.00;64.60
14585;DHT22;7379;51.506;11.876;2023-05-10T09:09:19;15.00;64.80
14585;DHT22;7379;51.506;11.876;2023-05-10T09:11:48;15.00;65.60
14585;DHT22;7379;51.506;11.876;2023-05-10T09:14:15;15.00;66.40
14585;DHT22;7379;51.506;11.876;2023-05-10T09:16:43;15.00;66.40
14585;DHT22;7379;51.506;11.876;2023-05-10T09:19:10;15.00;66.50
14585;DHT22;7379;51.506;11.876;2023-05-10T09:21:37;15.10;66.30
14585;DHT22;7379;51.506;11.876;2023-05-10T09:24:05;15.10;67.70
14585;DHT22;7379;51.506;11.876;2023-05-10T09:26:32;15.10;67.20
14585;DHT22;7379;51.506;11.876;2023-05-10T09:29:04;15.10;67.10
14585;DHT22;7379;51.506;11.876;2023-05-10T09:31:52;15.10;68.70
14585;DHT22;7379;51.506;11.876;2023-05-10T09:34:27;15.10;68.20
14585;DHT22;7379;51.506;11.876;2023-05-10T09:36:55;15.10;68.70
14585;DHT22;7379;51.506;11.876;2023-05-10T09:39:30;15.10;68.60
14585;DHT22;7379;51.506;11.876;2023-05-10T09:41:58;15.10;68.80
14585;DHT22;7379;51.506;11.876;2023-05-10T09:44:27;15.10;69.20
14585;DHT22;7379;51.506;11.876;2023-05-10T09:46:54;15.20;70.10
14585;DHT22;7379;51.506;11.876;2023-05-10T09:49:21;15.20;69.80
14585;DHT22;7379;51.506;11.876;2023-05-10T09:52:00;15.20;70.10
14585;DHT22;7379;51.506;11.876;2023-05-10T09:54:27;15.20;69.40
14585;DHT22;7379;51.506;11.876;2023-05-10T09:56:54;15.20;69.90
14585;DHT22;7379;51.506;11.876;2023-05-10T09:59:21;15.30;69.10
14585;DHT22;7379;51.506;11.876;2023-05-10T10:01:50;15.30;69.90
14585;DHT22;7379;51.506;11.876;2023-05-10T10:04:17;15.30;69.80
14585;DHT22;7379;51.506;11.876;2023-05-10T10:06:46;15.30;70.50
14585;DHT22;7379;51.506;11.876;2023-05-10T10:09:14;15.30;71.30
14585;DHT22;7379;51.506;11.876;2023-05-10T10:11:40;15.40;70.70
14585;DHT22;7379;51.506;11.876;2023-05-10T10:14:07;15.40;71.30
14585;DHT22;7379;51.506;11.876;2023-05-10T10:16:34;15.40;71.60
14585;DHT22;7379;51.506;11.876;2023-05-10T10:19:03;15.40;70.60
14585;DHT22;7379;51.506;11.876;2023-05-10T10:21:30;15.40;71.00
14585;DHT22;7379;51.506;11.876;2023-05-10T10:23:57;15.40;71.20
14585;DHT22;7379;51.506;11.876;2023-05-10T10:26:24;15.40;71.50
14585;DHT22;7379;51.506;11.876;2023-05-10T10:29:00;15.50;71.30
14585;DHT22;7379;51.506;11.876;2023-05-10T10:31:34;15.50;71.40
14585;DHT22;7379;51.506;11.876;2023-05-10T10:34:06;15.50;71.50
14585;DHT22;7379;51.506;11.876;2023-05-10T10:36:40;15.50;72.40
14585;DHT22;7379;51.506;11.876;2023-05-10T10:39:09;15.50;71.50
14585;DHT22;7379;51.506;11.876;2023-05-10T10:41:39;15.50;71.30
14585;DHT22;7379;51.506;11.876;2023-05-10T10:44:37;15.50;71.80
14585;DHT22;7379;51.506;11.876;2023-05-10T10:47:06;15.60;72.20
14585;DHT22;7379;51.506;11.876;2023-05-10T10:49:48;15.60;71.70
14585;DHT22;7379;51.506;11.876;2023-05-10T10:52:20;15.60;71.70
14585;DHT22;7379;51.506;11.876;2023-05-10T10:54:50;15.60;72.50
14585;DHT22;7379;51.506;11.876;2023-05-10T10:57:18;15.70;72.00
14585;DHT22;7379;51.506;11.876;2023-05-10T10:59:47;15.70;73.00
14585;DHT22;7379;51.506;11.876;2023-05-10T11:02:34;15.70;72.00
14585;DHT22;7379;51.506;11.876;2023-05-10T11:05:23;15.70;73.50
14585;DHT22;7379;51.506;11.876;2023-05-10T11:07:54;15.70;72.30
14585;DHT22;7379;51.506;11.876;2023-05-10T11:10:22;15.70;72.50
14585;DHT22;7379;51.506;11.876;2023-05-10T11:12:53;15.70;73.10
14585;DHT22;7379;51.506;11.876;2023-05-10T11:15:28;15.70;73.30
14585;DHT22;7379;51.506;11.876;2023-05-10T11:17:55;15.80;74.10
14585;DHT22;7379;51.506;11.876;2023-05-10T11:20:23;15.80;73.40
14585;DHT22;7379;51.506;11.876;2023-05-10T11:23:10;15.80;73.00
14585;DHT22;7379;51.506;11.876;2023-05-10T11:25:41;15.90;73.20
14585;DHT22;7379;51.506;11.876;2023-05-10T11:28:08;15.90;73.60
14585;DHT22;7379;51.506;11.876;2023-05-10T11:30:36;15.90;73.40
14585;DHT22;7379;51.506;11.876;2023-05-10T11:33:03;15.90;72.30
14585;DHT22;7379;51.506;11.876;2023-05-10T11:35:31;15.90;72.70
14585;DHT22;7379;51.506;11.876;2023-05-10T11:38:05;15.90;73.60
14585;DHT22;7379;51.506;11.876;2023-05-10T11:40:32;16.00;72.80
14585;DHT22;7379;51.506;11.876;2023-05-10T11:42:59;16.00;72.70
14585;DHT22;7379;51.506;11.876;2023-05-10T11:45:26;16.00;73.50
14585;DHT22;7379;51.506;11.876;2023-05-10T11:47:54;16.10;72.40
14585;DHT22;7379;51.506;11.876;2023-05-10T11:50:21;16.10;73.00
14585;DHT22;7379;51.506;11.876;2023-05-10T11:52:51;16.10;72.50
14585;DHT22;7379;51.506;11.876;2023-05-10T11:55:19;16.10;72.90
14585;DHT22;7379;51.506;11.876;2023-05-10T11:57:46;16.10;72.10
14585;DHT22;7379;51.506;11.876;2023-05-10T12:00:13;16.10;71.50
14585;DHT22;7379;51.506;11.876;2023-05-10T12:02:40;16.10;72.00
14585;DHT22;7379;51.506;11.876;2023-05-10T12:05:08;16.10;72.30
14585;DHT22;7379;51.506;11.876;2023-05-10T12:07:35;16.10;73.00
14585;DHT22;7379;51.506;11.876;2023-05-10T12:10:08;16.10;72.60
14585;DHT22;7379;51.506;11.876;2023-05-10T12:12:39;16.10;72.30
14585;DHT22;7379;51.506;11.876;2023-05-10T12:15:11;16.10;72.40
14585;DHT22;7379;51.506;11.876;2023-05-10T12:17:38;16.10;72.30
14585;DHT22;7379;51.506;11.876;2023-05-10T12:20:19;16.10;73.30
14585;DHT22;7379;51.506;11.876;2023-05-10T12:22:48;16.10;72.80
14585;DHT22;7379;51.506;11.876;2023-05-10T12:25:17;16.10;73.10
14585;DHT22;7379;51.506;11.876;2023-05-10T12:27:51;16.10;72.40
14585;DHT22;7379;51.506;11.876;2023-05-10T12:30:22;16.10;73.00
14585;DHT22;7379;51.506;11.876;2023-05-10T12:32:49;16.10;72.80
14585;DHT22;7379;51.506;11.876;2023-05-10T12:35:17;16.10;73.40
14585;DHT22;7379;51.506;11.876;2023-05-10T12:37:46;16.10;73.20
14585;DHT22;7379;51.506;11.876;2023-05-10T12:40:13;16.10;72.20
14585;DHT22;7379;51.506;11.876;2023-05-10T12:42:41;16.10;72.20
14585;DHT22;7379;51.506;11.876;2023-05-10T12:45:11;16.10;72.60
14585;DHT22;7379;51.506;11.876;2023-05-10T12:47:38;16.20;72.30
14585;DHT22;7379;51.506;11.876;2023-05-10T12:50:06;16.20;72.10
14585;DHT22;7379;51.506;11.876;2023-05-10T12:52:33;16.20;72.30
14585;DHT22;7379;51.506;11.876;2023-05-10T12:55:00;16.20;71.90
14585;DHT22;7379;51.506;11.876;2023-05-10T12:57:27;16.20;71.80
14585;DHT22;7379;51.506;11.876;2023-05-10T12:59:55;16.30;71.90
14585;DHT22;7379;51.506;11.876;2023-05-10T13:02:22;16.30;72.40
14585;DHT22;7379;51.506;11.876;2023-05-10T13:04:49;16.40;73.20
14585;DHT22;7379;51.506;11.876;2023-05-10T13:07:16;16.40;72.70
14585;DHT22;7379;51.506;11.876;2023-05-10T13:09:43;16.40;72.10
14585;DHT22;7379;51.506;11.876;2023-05-10T13:12:10;16.40;71.30
14585;DHT22;7379;51.506;11.876;2023-05-10T13:14:37;16.40;71.90
14585;DHT22;7379;51.506;11.876;2023-05-10T13:17:07;16.40;73.20
14585;DHT22;7379;51.506;11.876;2023-05-10T13:19:34;16.40;72.80
14585;DHT22;7379;51.506;11.876;2023-05-10T13:22:01;16.50;73.10
14585;DHT22;7379;51.506;11.876;2023-05-10T13:24:27;16.50;72.70
14585;DHT22;7379;51.506;11.876;2023-05-10T13:26:54;16.50;72.50
14585;DHT22;7379;51.506;11.876;2023-05-10T13:29:21;16.60;72.10
14585;DHT22;7379;51.506;11.876;2023-05-10T13:31:48;16.50;71.10
14585;DHT22;7379;51.506;11.876;2023-05-10T13:34:16;16.50;70.40
14585;DHT22;7379;51.506;11.876;2023-05-10T13:36:46;16.50;70.20
14585;DHT22;7379;51.506;11.876;2023-05-10T13:39:12;16.50;71.60
14585;DHT22;7379;51.506;11.876;2023-05-10T13:41:39;16.60;72.40
14585;DHT22;7379;51.506;11.876;2023-05-10T13:44:06;16.50;70.60
14585;DHT22;7379;51.506;11.876;2023-05-10T13:46:33;16.50;70.40
14585;DHT22;7379;51.506;11.876;2023-05-10T13:49:00;16.60;73.30
14585;DHT22;7379;51.506;11.876;2023-05-10T13:51:28;16.60;72.90
14585;DHT22;7379;51.506;11.876;2023-05-10T13:53:57;16.60;72.20
14585;DHT22;7379;51.506;11.876;2023-05-10T13:56:23;16.60;72.20
14585;DHT22;7379;51.506;11.876;2023-05-10T13:58:50;16.60;71.50
14585;DHT22;7379;51.506;11.876;2023-05-10T14:01:17;16.60;71.80
14585;DHT22;7379;51.506;11.876;2023-05-10T14:03:44;16.60;71.10
14585;DHT22;7379;51.506;11.876;2023-05-10T14:06:11;16.60;71.20
14585;DHT22;7379;51.506;11.876;2023-05-10T14:08:40;16.60;70.30
14585;DHT22;7379;51.506;11.876;2023-05-10T14:11:06;16.60;72.20
14585;DHT22;7379;51.506;11.876;2023-05-10T14:13:33;16.60;70.60
14585;DHT22;7379;51.506;11.876;2023-05-10T14:16:01;16.50;70.10
14585;DHT22;7379;51.506;11.876;2023-05-10T14:18:27;16.60;70.10
14585;DHT22;7379;51.506;11.876;2023-05-10T14:20:54;16.60;70.20
14585;DHT22;7379;51.506;11.876;2023-05-10T14:23:22;16.60;70.40
14585;DHT22;7379;51.506;11.876;2023-05-10T14:25:51;16.50;70.90
14585;DHT22;7379;51.506;11.876;2023-05-10T14:28:18;16.50;70.80
14585;DHT22;7379;51.506;11.876;2023-05-10T14:30:46;16.50;70.70
14585;DHT22;7379;51.506;11.876;2023-05-10T14:33:13;16.50;71.00
14585;DHT22;7379;51.506;11.876;2023-05-10T14:35:39;16.50;71.30
14585;DHT22;7379;51.506;11.876;2023-05-10T14:38:06;16.50;71.20
14585;DHT22;7379;51.506;11.876;2023-05-10T14:40:33;16.50;71.20
14585;DHT22;7379;51.506;11.876;2023-05-10T14:43:01;16.50;71.90
14585;DHT22;7379;51.506;11.876;2023-05-10T14:45:28;16.50;71.50
14585;DHT22;7379;51.506;11.876;2023-05-10T14:47:55;16.60;73.00
14585;DHT22;7379;51.506;11.876;2023-05-10T14:50:22;16.60;71.80
14585;DHT22;7379;51.506;11.876;2023-05-10T14:52:49;16.60;71.60
14585;DHT22;7379;51.506;11.876;2023-05-10T14:55:16;16.60;71.70
14585;DHT22;7379;51.506;11.876;2023-05-10T14:57:43;16.60;71.40
14585;DHT22;7379;51.506;11.876;2023-05-10T15:00:15;16.60;71.50
14585;DHT22;7379;51.506;11.876;2023-05-10T15:02:42;16.60;71.70
14585;DHT22;7379;51.506;11.876;2023-05-10T15:05:09;16.60;71.80
14585;DHT22;7379;51.506;11.876;2023-05-10T15:07:36;16.60;71.80
14585;DHT22;7379;51.506;11.876;2023-05-10T15:10:03;16.60;71.70
14585;DHT22;7379;51.506;11.876;2023-05-10T15:12:30;16.60;71.60
14585;DHT22;7379;51.506;11.876;2023-05-10T15:14:57;16.60;71.40
14585;DHT22;7379;51.506;11.876;2023-05-10T15:17:25;16.60;71.50
14585;DHT22;7379;51.506;11.876;2023-05-10T15:19:52;16.60;71.40
14585;DHT22;7379;51.506;11.876;2023-05-10T15:22:18;16.60;71.50
14585;DHT22;7379;51.506;11.876;2023-05-10T15:24:46;16.60;71.40
14585;DHT22;7379;51.506;11.876;2023-05-10T15:27:13;16.60;71.50
14585;DHT22;7379;51.506;11.876;2023-05-10T15:29:40;16.60;71.10
14585;DHT22;7379;51.506;11.876;2023-05-10T15:32:07;16.60;71.00
14585;DHT22;7379;51.506;11.876;2023-05-10T15:34:35;16.60;71.00
14585;DHT22;7379;51.506;11.876;2023-05-10T15:37:02;16.60;71.30
14585;DHT22;7379;51.506;11.876;2023-05-10T15:39:29;16.60;70.50